Terminal Aerodrome Forecast
Issued by NWS Central Illinois

Home | Current Version | Previous Version | Text Only | Print | Product List | Glossary On
Versions: 1 2 3 4 5 6 7 8 9 10 11 12 13 14 15 16 17 18 19 20 21 22 23 24
000
FTUS43 KILX 031128
TAFSPI
TAF
KSPI 031128Z 0312/0412 32005KT P6SM SCT040
      TEMPO 0312/0314 5SM BR
     FM031700 30008KT P6SM BKN040
     FM040100 23008KT P6SM BKN050
     FM040900 27011KT P6SM VCSH BKN050=

USA.gov is the U.S. government's official web portal to all federal, state and local government web resources and services.